createdAt,value
2018-02-12T00:00:59.340Z,161.1
2018-02-12T00:10:59.062Z,133.4
2018-02-12T00:20:58.973Z,128.4
2018-02-12T00:30:58.685Z,142.3
2018-02-12T00:40:59.332Z,132.6
2018-02-12T00:50:59.110Z,128.5
2018-02-12T01:00:58.797Z,136.5
2018-02-12T01:10:59.638Z,139.5
2018-02-12T01:20:59.603Z,128.0
2018-02-12T01:30:59.421Z,136.9
2018-02-12T01:40:59.228Z,133.3
2018-02-12T01:50:59.069Z,127.2
2018-02-12T02:00:58.888Z,137.4
2018-02-12T02:10:59.728Z,124.6
2018-02-12T02:20:59.520Z,137.6
2018-02-12T02:30:59.270Z,130.6
2018-02-12T02:40:59.112Z,128.0
2018-02-12T02:50:58.862Z,128.2
2018-02-12T03:00:59.687Z,131.5
2018-02-12T03:10:59.460Z,133.4
2018-02-12T03:20:59.578Z,126.0
2018-02-12T03:30:59.388Z,127.7
2018-02-12T03:40:59.185Z,138.1
2018-02-12T03:50:58.933Z,137.0
2018-02-12T04:00:59.748Z,145.6
2018-02-12T04:10:59.675Z,136.3
2018-02-12T04:20:59.513Z,134.4
2018-02-12T04:30:59.271Z,162.5
2018-02-12T04:40:59.057Z,136.4
2018-02-12T04:50:58.858Z,139.0
2018-02-12T05:00:59.613Z,136.2
2018-02-12T05:10:59.363Z,133.4
2018-02-12T05:20:59.185Z,132.1
2018-02-12T05:30:59.564Z,126.7
2018-02-12T05:40:59.354Z,140.1
2018-02-12T05:50:59.152Z,139.7
2018-02-12T06:00:58.934Z,135.3
2018-02-12T06:10:59.769Z,146.7
2018-02-12T06:20:59.709Z,138.2
2018-02-12T06:30:59.560Z,140.5
2018-02-12T06:40:59.397Z,144.1
2018-02-12T06:50:59.150Z,138.7
2018-02-12T07:00:58.911Z,137.4
2018-02-12T07:10:59.633Z,139.9
2018-02-12T07:20:59.546Z,142.9
2018-02-12T07:30:59.312Z,140.9
2018-02-12T07:40:59.095Z,136.7
2018-02-12T07:50:58.876Z,151.8
2018-02-12T08:00:59.681Z,130.0
2018-02-12T08:10:59.483Z,114.1
2018-02-12T08:20:59.419Z,119.0
2018-02-12T08:30:59.166Z,116.0
2018-02-12T08:40:58.943Z,106.8
2018-02-12T08:50:59.833Z,94.4
2018-02-12T09:00:59.648Z,93.8
2018-02-12T09:10:59.546Z,83.8
2018-02-12T09:20:59.520Z,75.8
2018-02-12T09:30:59.334Z,73.2
2018-02-12T09:40:59.154Z,75.5
2018-02-12T09:50:58.943Z,67.0
2018-02-12T10:00:59.790Z,73.9
2018-02-12T10:10:59.596Z,84.1
2018-02-12T10:20:59.508Z,71.5
2018-02-12T10:30:59.327Z,74.8
2018-02-12T10:40:59.090Z,66.2
2018-02-12T10:50:58.844Z,72.9
2018-02-12T11:00:59.592Z,69.8
2018-02-12T11:10:59.414Z,68.0
2018-02-12T11:20:59.363Z,79.4
2018-02-12T11:30:59.421Z,80.6
2018-02-12T11:40:59.186Z,85.5
2018-02-12T11:50:59.034Z,75.7
2018-02-12T12:00:58.864Z,73.9
2018-02-12T12:10:59.715Z,76.5
2018-02-12T12:20:59.731Z,76.1
2018-02-12T12:30:59.552Z,75.2
2018-02-12T12:40:59.360Z,70.7
2018-02-12T12:50:59.148Z,74.4
2018-02-12T13:00:59.978Z,71.0
2018-02-12T13:10:58.683Z,75.8
2018-02-12T13:20:59.620Z,81.7
2018-02-12T13:30:59.424Z,77.8
2018-02-12T13:40:59.233Z,79.1
2018-02-12T13:50:59.029Z,70.6
2018-02-12T14:00:58.738Z,71.9
2018-02-12T14:10:59.495Z,74.2
2018-02-12T14:20:59.369Z,72.6
2018-02-12T14:30:59.046Z,73.7
2018-02-12T14:40:58.819Z,76.0
2018-02-12T14:50:59.536Z,77.3
2018-02-12T15:00:59.306Z,82.3
2018-02-12T15:10:59.121Z,84.3
2018-02-12T15:20:59.003Z,81.9
2018-02-12T15:30:58.767Z,79.1
2018-02-12T15:40:59.553Z,86.4
2018-02-12T15:50:59.468Z,82.4
2018-02-12T16:00:59.187Z,87.0
2018-02-12T16:10:58.986Z,89.7
2018-02-12T16:20:58.862Z,96.6
2018-02-12T16:30:59.508Z,86.3
2018-02-12T16:40:59.306Z,89.2
2018-02-12T16:50:59.118Z,98.6
2018-02-12T17:00:58.852Z,94.0
2018-02-12T17:11:00.681Z,88.7
2018-02-12T17:20:59.590Z,97.1
2018-02-12T17:30:59.303Z,96.7
2018-02-12T17:40:58.983Z,98.2
2018-02-12T17:50:58.776Z,103.6
2018-02-12T18:00:59.532Z,95.6
2018-02-12T18:10:59.284Z,103.0
2018-02-12T18:21:00.208Z,108.9
2018-02-12T18:31:00.022Z,106.1
2018-02-12T18:40:58.875Z,115.7
2018-02-12T18:50:59.788Z,119.8
2018-02-12T19:00:59.533Z,118.8
2018-02-12T19:10:59.485Z,109.0
2018-02-12T19:20:59.339Z,126.4
2018-02-12T19:30:59.204Z,138.0
2018-02-12T19:40:59.176Z,155.1
2018-02-12T19:50:59.144Z,154.3
2018-02-12T20:00:59.208Z,183.2
2018-02-12T20:10:59.184Z,160.4
2018-02-12T20:20:59.223Z,161.5
2018-02-12T20:30:59.234Z,183.6
2018-02-12T20:40:59.194Z,195.7
2018-02-12T20:50:59.209Z,214.8
2018-02-12T21:00:59.189Z,217.8
2018-02-12T21:10:59.159Z,213.1
2018-02-12T21:20:59.154Z,246.2
2018-02-12T21:30:58.981Z,242.4
2018-02-12T21:40:59.733Z,247.5
2018-02-12T21:50:59.470Z,254.6
2018-02-12T22:00:59.287Z,260.1
2018-02-12T22:10:59.074Z,255.9
2018-02-12T22:20:58.957Z,284.7
2018-02-12T22:30:59.768Z,292.8
2018-02-12T22:40:59.598Z,263.6
2018-02-12T22:50:59.408Z,202.7
2018-02-12T23:00:59.220Z,189.1
2018-02-12T23:10:59.005Z,205.1
2018-02-12T23:20:58.976Z,196.7
2018-02-12T23:30:59.829Z,171.0
2018-02-12T23:40:59.612Z,210.6
2018-02-12T23:50:59.410Z,195.6
